createdAt,value
2019-03-04T00:00:42.501Z,84.47
2019-03-04T00:01:42.508Z,84.47
2019-03-04T00:02:42.310Z,84.38
2019-03-04T00:03:42.213Z,84.38
2019-03-04T00:04:42.133Z,84.00
2019-03-04T00:05:42.016Z,84.38
2019-03-04T00:06:41.917Z,84.19
2019-03-04T00:07:41.947Z,84.38
2019-03-04T00:08:41.723Z,84.47
2019-03-04T00:09:41.643Z,84.28
2019-03-04T00:10:41.528Z,84.47
2019-03-04T00:11:41.430Z,83.90
2019-03-04T00:12:41.336Z,83.81
2019-03-04T00:13:41.234Z,83.71
2019-03-04T00:14:41.156Z,83.90
2019-03-04T00:15:41.042Z,84.00
2019-03-04T00:16:40.943Z,83.71
2019-03-04T00:17:40.849Z,84.38
2019-03-04T00:18:40.749Z,84.38
2019-03-04T00:19:40.668Z,84.38
2019-03-04T00:20:40.556Z,84.38
2019-03-04T00:21:40.461Z,84.47
2019-03-04T00:22:40.358Z,84.28
2019-03-04T00:23:40.263Z,84.38
2019-03-04T00:24:40.183Z,83.81
2019-03-04T00:25:40.069Z,84.38
2019-03-04T00:26:39.968Z,84.56
2019-03-04T00:27:39.874Z,84.38
2019-03-04T00:28:39.773Z,84.56
2019-03-04T00:29:39.694Z,84.28
2019-03-04T00:30:39.581Z,84.38
2019-03-04T00:31:39.482Z,84.47
2019-03-04T00:32:39.384Z,84.47
2019-03-04T00:33:39.289Z,84.85
2019-03-04T00:34:39.207Z,84.38
2019-03-04T00:35:39.093Z,84.47
2019-03-04T00:36:38.997Z,84.95
2019-03-04T00:37:38.898Z,84.95
2019-03-04T00:38:38.802Z,84.76
2019-03-04T00:39:38.723Z,84.95
2019-03-04T00:40:38.606Z,84.85
2019-03-04T00:41:38.515Z,85.04
2019-03-04T00:42:38.415Z,84.95
2019-03-04T00:43:38.324Z,84.95
2019-03-04T00:44:38.226Z,84.95
2019-03-04T00:45:38.138Z,85.24
2019-03-04T00:46:38.026Z,85.80
2019-03-04T00:47:37.929Z,85.42
2019-03-04T00:48:37.830Z,85.71
2019-03-04T00:49:37.733Z,85.71
2019-03-04T00:50:37.654Z,85.42
2019-03-04T00:51:37.538Z,85.61
2019-03-04T00:52:37.447Z,85.80
2019-03-04T00:53:37.343Z,85.33
2019-03-04T00:54:37.250Z,85.80
2019-03-04T00:55:37.169Z,85.80
2019-03-04T00:56:37.054Z,85.71
2019-03-04T00:57:36.959Z,85.42
2019-03-04T00:58:36.863Z,85.80
2019-03-04T00:59:36.768Z,85.99
2019-03-04T01:00:36.681Z,86.57
2019-03-04T01:01:36.566Z,85.90
2019-03-04T01:02:36.471Z,86.57
2019-03-04T01:03:36.373Z,86.57
2019-03-04T01:04:36.285Z,86.28
2019-03-04T01:05:36.196Z,86.57
2019-03-04T01:06:36.087Z,86.57
2019-03-04T01:07:35.993Z,86.66
2019-03-04T01:08:35.899Z,86.94
2019-03-04T01:09:35.793Z,86.47
2019-03-04T01:10:35.713Z,86.66
2019-03-04T01:11:35.597Z,86.38
2019-03-04T01:12:35.500Z,86.18
2019-03-04T01:13:35.406Z,86.18
2019-03-04T01:14:35.308Z,86.18
2019-03-04T01:15:35.228Z,86.18
2019-03-04T01:16:35.114Z,86.38
2019-03-04T01:17:35.145Z,86.47
2019-03-04T01:18:34.920Z,86.66
2019-03-04T01:19:34.824Z,86.66
2019-03-04T01:20:34.742Z,87.04
2019-03-04T01:21:34.633Z,87.04
2019-03-04T01:22:34.534Z,86.66
2019-03-04T01:23:34.439Z,87.04
2019-03-04T01:24:34.442Z,86.76
2019-03-04T01:25:34.256Z,86.47
2019-03-04T01:26:34.143Z,86.94
2019-03-04T01:27:34.058Z,86.85
2019-03-04T01:28:33.948Z,86.76
2019-03-04T01:29:33.852Z,86.80
2019-03-04T01:30:33.771Z,86.80
2019-03-04T01:31:33.764Z,86.90
2019-03-04T01:32:33.569Z,87.38
2019-03-04T01:33:33.464Z,86.80
2019-03-04T01:34:33.366Z,87.32
2019-03-04T01:35:33.287Z,87.09
2019-03-04T01:36:33.173Z,86.66
2019-03-04T01:37:33.078Z,87.47
2019-03-04T01:38:33.083Z,86.66
2019-03-04T01:39:32.885Z,86.76
2019-03-04T01:40:32.800Z,86.66
2019-03-04T01:41:32.690Z,86.80
2019-03-04T01:42:32.589Z,86.76
2019-03-04T01:43:32.495Z,86.90
2019-03-04T01:44:32.396Z,86.85
2019-03-04T01:45:32.426Z,86.38
2019-03-04T01:46:32.200Z,87.04
2019-03-04T01:47:32.103Z,86.38
2019-03-04T01:48:32.004Z,86.38
2019-03-04T01:49:31.908Z,86.18
2019-03-04T01:50:31.827Z,86.66
2019-03-04T01:51:31.713Z,86.66
2019-03-04T01:52:31.723Z,86.28
2019-03-04T01:53:31.521Z,86.18
2019-03-04T01:54:31.421Z,86.18
2019-03-04T01:55:31.342Z,86.76
2019-03-04T01:56:31.226Z,86.94
2019-03-04T01:57:31.129Z,87.42
2019-03-04T01:58:31.035Z,87.71
2019-03-04T01:59:31.041Z,87.90
2019-03-04T02:00:30.860Z,88.28
2019-03-04T02:01:30.740Z,88.46
2019-03-04T02:02:30.643Z,88.18
2019-03-04T02:03:30.545Z,88.56
2019-03-04T02:04:30.452Z,88.46
2019-03-04T02:05:30.371Z,88.56
2019-03-04T02:06:30.373Z,88.94
2019-03-04T02:07:30.156Z,89.42
2019-03-04T02:08:30.062Z,89.32
2019-03-04T02:09:29.965Z,89.04
2019-03-04T02:10:29.885Z,88.85
2019-03-04T02:11:29.768Z,88.75
2019-03-04T02:12:29.671Z,89.23
2019-03-04T02:13:29.677Z,88.94
2019-03-04T02:14:29.474Z,89.23
2019-03-04T02:15:29.382Z,89.23
2019-03-04T02:16:29.295Z,89.14
2019-03-04T02:17:29.197Z,88.85
2019-03-04T02:18:29.092Z,89.42
2019-03-04T02:19:29.003Z,89.04
2019-03-04T02:20:29.002Z,89.04
2019-03-04T02:21:28.808Z,88.85
2019-03-04T02:22:28.694Z,89.04
2019-03-04T02:23:28.596Z,89.32
2019-03-04T02:24:28.502Z,88.85
2019-03-04T02:25:28.403Z,89.04
2019-03-04T02:26:28.320Z,88.85
2019-03-04T02:27:28.327Z,88.85
2019-03-04T02:28:28.109Z,89.70
2019-03-04T02:29:28.013Z,89.32
2019-03-04T02:30:27.924Z,89.42
2019-03-04T02:31:27.833Z,89.42
2019-03-04T02:32:27.719Z,89.51
2019-03-04T02:33:27.621Z,89.32
2019-03-04T02:34:27.629Z,90.08
2019-03-04T02:35:27.429Z,90.18
2019-03-04T02:36:27.346Z,90.23
2019-03-04T02:37:27.233Z,90.04
2019-03-04T02:38:27.132Z,90.23
2019-03-04T02:39:27.038Z,89.85
2019-03-04T02:40:27.062Z,89.75
2019-03-04T02:41:26.856Z,89.47
2019-03-04T02:42:26.740Z,89.56
2019-03-04T02:43:26.649Z,89.66
2019-03-04T02:44:26.549Z,89.33
2019-03-04T02:45:26.465Z,89.33
2019-03-04T02:46:26.402Z,89.14
2019-03-04T02:47:26.251Z,89.14
2019-03-04T02:48:26.269Z,88.67
2019-03-04T02:49:26.054Z,88.85
2019-03-04T02:50:25.959Z,88.95
2019-03-04T02:51:25.876Z,88.95
2019-03-04T02:52:25.759Z,89.14
2019-03-04T02:53:25.668Z,88.00
2019-03-04T02:54:25.691Z,88.85
2019-03-04T02:55:25.468Z,88.47
2019-03-04T02:56:25.385Z,88.76
2019-03-04T02:57:25.277Z,88.80
2019-03-04T02:58:25.171Z,89.18
2019-03-04T02:59:25.085Z,88.42
2019-03-04T03:00:24.978Z,88.23
2019-03-04T03:01:24.900Z,88.23
2019-03-04T03:02:24.777Z,88.04
2019-03-04T03:03:24.707Z,88.13
2019-03-04T03:04:24.580Z,88.90
2019-03-04T03:05:24.485Z,88.04
2019-03-04T03:06:24.402Z,88.90
2019-03-04T03:07:24.282Z,88.80
2019-03-04T03:08:24.186Z,89.18
2019-03-04T03:09:24.089Z,89.18
2019-03-04T03:10:23.990Z,88.80
2019-03-04T03:11:23.908Z,89.18
2019-03-04T03:12:23.796Z,89.00
2019-03-04T03:13:23.694Z,88.94
2019-03-04T03:14:23.597Z,89.00
2019-03-04T03:15:23.501Z,89.32
2019-03-04T03:16:23.416Z,89.32
2019-03-04T03:17:23.305Z,89.42
2019-03-04T03:18:23.205Z,89.32
2019-03-04T03:19:23.108Z,89.04
2019-03-04T03:20:23.010Z,89.61
2019-03-04T03:21:22.939Z,89.61
2019-03-04T03:22:22.812Z,89.51
2019-03-04T03:23:22.718Z,89.42
2019-03-04T03:24:22.619Z,89.61
2019-03-04T03:25:22.517Z,89.23
2019-03-04T03:26:22.434Z,89.18
2019-03-04T03:27:22.375Z,89.28
2019-03-04T03:28:22.222Z,89.28
2019-03-04T03:29:22.125Z,89.56
2019-03-04T03:30:22.052Z,88.71
2019-03-04T03:31:21.952Z,89.37
2019-03-04T03:32:21.838Z,89.37
2019-03-04T03:33:21.744Z,89.09
2019-03-04T03:34:21.633Z,89.28
2019-03-04T03:35:21.539Z,89.28
2019-03-04T03:36:21.456Z,89.47
2019-03-04T03:37:21.342Z,89.09
2019-03-04T03:38:21.241Z,89.28
2019-03-04T03:39:21.143Z,88.80
2019-03-04T03:40:21.115Z,89.09
2019-03-04T03:41:20.963Z,89.00
2019-03-04T03:42:20.848Z,89.47
2019-03-04T03:43:20.751Z,88.52
2019-03-04T03:44:20.658Z,88.61
2019-03-04T03:45:20.558Z,88.33
2019-03-04T03:46:20.471Z,88.90
2019-03-04T03:47:20.355Z,89.28
2019-03-04T03:48:20.268Z,89.23
2019-03-04T03:49:20.159Z,89.18
2019-03-04T03:50:20.063Z,88.61
2019-03-04T03:51:19.980Z,89.37
2019-03-04T03:52:19.868Z,89.28
2019-03-04T03:53:19.767Z,89.00
2019-03-04T03:54:19.667Z,88.23
2019-03-04T03:55:19.571Z,88.80
2019-03-04T03:56:19.494Z,89.00
2019-03-04T03:57:19.477Z,89.28
2019-03-04T03:58:19.275Z,88.80
2019-03-04T03:59:19.180Z,89.23
2019-03-04T04:00:19.079Z,88.00
2019-03-04T04:01:18.984Z,88.19
2019-03-04T04:02:18.900Z,88.95
2019-03-04T04:03:18.784Z,89.23
2019-03-04T04:04:18.685Z,88.19
2019-03-04T04:05:18.588Z,88.38
2019-03-04T04:06:18.494Z,88.38
2019-03-04T04:07:18.412Z,88.57
2019-03-04T04:08:18.306Z,88.00
2019-03-04T04:09:18.200Z,88.28
2019-03-04T04:10:18.101Z,88.28
2019-03-04T04:11:18.105Z,87.71
2019-03-04T04:12:17.924Z,87.71
2019-03-04T04:13:17.802Z,87.71
2019-03-04T04:14:17.711Z,87.62
2019-03-04T04:15:17.612Z,87.71
2019-03-04T04:16:17.510Z,87.62
2019-03-04T04:17:17.427Z,87.24
2019-03-04T04:18:17.314Z,87.71
2019-03-04T04:19:17.215Z,87.24
2019-03-04T04:20:17.133Z,87.19
2019-03-04T04:21:17.025Z,87.34
2019-03-04T04:22:16.935Z,87.34
2019-03-04T04:23:16.821Z,87.43
2019-03-04T04:24:16.724Z,87.43
2019-03-04T04:25:16.630Z,87.71
2019-03-04T04:26:16.638Z,87.24
2019-03-04T04:27:16.445Z,87.71
2019-03-04T04:28:16.337Z,87.52
2019-03-04T04:29:16.230Z,87.62
2019-03-04T04:30:16.135Z,87.62
2019-03-04T04:31:16.033Z,88.00
2019-03-04T04:32:15.956Z,87.05
2019-03-04T04:33:15.947Z,87.34
2019-03-04T04:34:15.748Z,87.43
2019-03-04T04:35:15.641Z,87.24
2019-03-04T04:36:15.541Z,87.43
2019-03-04T04:37:15.463Z,87.71
2019-03-04T04:38:15.346Z,87.62
2019-03-04T04:39:15.246Z,87.43
2019-03-04T04:40:15.258Z,87.34
2019-03-04T04:41:15.050Z,87.81
2019-03-04T04:42:14.994Z,87.34
2019-03-04T04:43:14.856Z,87.71
2019-03-04T04:44:14.757Z,87.43
2019-03-04T04:45:14.661Z,87.71
2019-03-04T04:46:14.562Z,87.24
2019-03-04T04:47:14.594Z,87.34
2019-03-04T04:48:14.364Z,87.24
2019-03-04T04:49:14.267Z,87.24
2019-03-04T04:50:14.165Z,87.43
2019-03-04T04:51:14.071Z,87.43
2019-03-04T04:52:13.987Z,89.52
2019-03-04T04:53:13.871Z,87.14
2019-03-04T04:54:13.878Z,87.47
2019-03-04T04:55:13.673Z,86.80
2019-03-04T04:56:13.579Z,87.57
2019-03-04T04:57:13.495Z,86.80
2019-03-04T04:58:13.377Z,87.28
2019-03-04T04:59:13.283Z,86.99
2019-03-04T05:00:13.186Z,87.81
2019-03-04T05:01:13.207Z,87.52
2019-03-04T05:02:13.001Z,87.14
2019-03-04T05:03:12.887Z,87.14
2019-03-04T05:04:12.789Z,87.14
2019-03-04T05:05:12.691Z,87.14
2019-03-04T05:06:13.116Z,87.24
2019-03-04T05:07:12.510Z,87.43
2019-03-04T05:08:12.516Z,87.43
2019-03-04T05:09:12.301Z,87.14
2019-03-04T05:10:12.211Z,87.43
2019-03-04T05:11:12.101Z,87.52
2019-03-04T05:12:12.018Z,86.57
2019-03-04T05:13:11.905Z,87.62
2019-03-04T05:14:11.806Z,87.62
2019-03-04T05:15:11.812Z,87.71
2019-03-04T05:16:11.610Z,86.76
2019-03-04T05:17:11.526Z,86.76
2019-03-04T05:18:11.416Z,86.76
2019-03-04T05:19:11.321Z,87.05
2019-03-04T05:20:11.215Z,86.67
2019-03-04T05:21:11.139Z,87.52
2019-03-04T05:22:11.036Z,86.86
2019-03-04T05:23:10.923Z,86.47
2019-03-04T05:24:10.827Z,86.76
2019-03-04T05:25:10.725Z,86.76
2019-03-04T05:26:10.627Z,86.76
2019-03-04T05:27:10.545Z,87.05
2019-03-04T05:28:10.432Z,86.86
2019-03-04T05:29:10.335Z,86.76
2019-03-04T05:30:10.240Z,86.57
2019-03-04T05:31:10.137Z,86.86
2019-03-04T05:32:10.056Z,87.14
2019-03-04T05:33:09.945Z,87.14
2019-03-04T05:34:09.840Z,86.57
2019-03-04T05:35:09.741Z,86.86
2019-03-04T05:36:09.644Z,86.34
2019-03-04T05:37:09.562Z,86.19
2019-03-04T05:38:09.448Z,86.29
2019-03-04T05:39:09.348Z,86.29
2019-03-04T05:40:09.267Z,86.47
2019-03-04T05:41:09.152Z,85.77
2019-03-04T05:42:09.070Z,85.77
2019-03-04T05:43:08.957Z,85.96
2019-03-04T05:44:08.862Z,86.05
2019-03-04T05:45:08.761Z,85.77
2019-03-04T05:46:08.663Z,85.39
2019-03-04T05:47:08.564Z,85.39
2019-03-04T05:48:08.482Z,85.68
2019-03-04T05:49:08.365Z,85.68
2019-03-04T05:50:08.269Z,85.30
2019-03-04T05:51:08.167Z,85.49
2019-03-04T05:52:08.071Z,84.53
2019-03-04T05:53:07.985Z,84.63
2019-03-04T05:54:07.875Z,84.82
2019-03-04T05:55:08.881Z,85.11
2019-03-04T05:56:07.675Z,84.72
2019-03-04T05:57:07.581Z,85.30
2019-03-04T05:58:07.495Z,85.11
2019-03-04T05:59:07.396Z,84.63
2019-03-04T06:00:07.285Z,84.53
2019-03-04T06:01:07.185Z,84.63
2019-03-04T06:02:07.087Z,84.82
2019-03-04T06:03:07.003Z,84.72
2019-03-04T06:04:06.891Z,85.24
2019-03-04T06:05:06.788Z,84.29
2019-03-04T06:06:06.690Z,84.95
2019-03-04T06:07:06.597Z,84.95
2019-03-04T06:08:06.510Z,84.77
2019-03-04T06:09:06.395Z,84.29
2019-03-04T06:10:06.300Z,84.39
2019-03-04T06:11:06.199Z,84.95
2019-03-04T06:12:06.100Z,84.77
2019-03-04T06:13:06.019Z,84.39
2019-03-04T06:14:05.903Z,85.05
2019-03-04T06:15:05.801Z,83.82
2019-03-04T06:16:05.707Z,84.29
2019-03-04T06:17:05.607Z,84.29
2019-03-04T06:18:05.528Z,84.29
2019-03-04T06:19:05.410Z,84.39
2019-03-04T06:20:05.315Z,84.95
2019-03-04T06:21:05.220Z,84.86
2019-03-04T06:22:05.120Z,84.67
2019-03-04T06:23:05.036Z,84.39
2019-03-04T06:24:04.919Z,84.20
2019-03-04T06:25:07.453Z,84.86
2019-03-04T06:26:04.726Z,85.05
2019-03-04T06:27:04.623Z,84.77
2019-03-04T06:28:04.544Z,84.77
2019-03-04T06:29:04.446Z,84.67
2019-03-04T06:30:04.339Z,84.95
2019-03-04T06:31:04.232Z,84.95
2019-03-04T06:32:04.137Z,84.67
2019-03-04T06:33:04.051Z,84.95
2019-03-04T06:34:03.938Z,84.95
2019-03-04T06:35:03.846Z,84.77
2019-03-04T06:36:03.743Z,84.86
2019-03-04T06:37:03.644Z,85.05
2019-03-04T06:38:03.562Z,84.86
2019-03-04T06:39:03.450Z,84.86
2019-03-04T06:40:03.349Z,84.86
2019-03-04T06:41:03.258Z,84.86
2019-03-04T06:42:03.156Z,84.95
2019-03-04T06:43:03.076Z,84.95
2019-03-04T06:44:02.957Z,84.95
2019-03-04T06:45:02.860Z,84.86
2019-03-04T06:46:02.761Z,84.58
2019-03-04T06:47:02.665Z,85.15
2019-03-04T06:48:02.600Z,84.77
2019-03-04T06:49:02.468Z,85.24
2019-03-04T06:50:02.370Z,85.24
2019-03-04T06:51:02.270Z,84.86
2019-03-04T06:52:02.178Z,84.86
2019-03-04T06:53:02.090Z,85.15
2019-03-04T06:54:01.977Z,84.86
2019-03-04T06:55:01.878Z,84.95
2019-03-04T06:56:01.783Z,85.15
2019-03-04T06:57:01.689Z,85.15
2019-03-04T06:58:01.601Z,85.15
2019-03-04T06:59:01.593Z,85.34
2019-03-04T07:00:01.388Z,84.67
2019-03-04T07:01:01.289Z,84.95
2019-03-04T07:02:01.194Z,84.67
2019-03-04T07:03:01.114Z,84.95
2019-03-04T07:04:00.996Z,84.95
2019-03-04T07:05:00.902Z,84.20
2019-03-04T07:06:00.905Z,84.48
2019-03-04T07:07:00.700Z,84.48
2019-03-04T07:08:00.623Z,84.86
2019-03-04T07:09:00.510Z,85.19
2019-03-04T07:10:00.414Z,85.19
2019-03-04T07:11:00.310Z,84.81
2019-03-04T07:12:00.215Z,84.81
2019-03-04T07:13:00.236Z,84.91
2019-03-04T07:14:00.018Z,85.19
2019-03-04T07:14:59.921Z,85.19
2019-03-04T07:15:59.827Z,84.72
2019-03-04T07:16:59.751Z,84.91
2019-03-04T07:17:59.646Z,85.19
2019-03-04T07:18:59.531Z,85.38
2019-03-04T07:19:59.553Z,85.38
2019-03-04T07:20:59.337Z,85.76
2019-03-04T07:21:59.244Z,84.81
2019-03-04T07:22:59.161Z,85.66
2019-03-04T07:23:59.048Z,84.81
2019-03-04T07:24:58.949Z,85.66
2019-03-04T07:25:58.861Z,85.66
2019-03-04T07:26:58.857Z,85.95
2019-03-04T07:27:58.674Z,84.91
2019-03-04T07:28:58.560Z,86.33
2019-03-04T07:29:58.463Z,85.76
2019-03-04T07:30:58.363Z,85.95
2019-03-04T07:31:58.271Z,85.95
2019-03-04T07:32:58.189Z,85.95
2019-03-04T07:33:58.177Z,85.86
2019-03-04T07:34:57.980Z,86.71
2019-03-04T07:35:57.883Z,87.28
2019-03-04T07:36:57.784Z,86.33
2019-03-04T07:37:57.702Z,86.33
2019-03-04T07:38:57.588Z,87.28
2019-03-04T07:39:57.495Z,87.19
2019-03-04T07:40:57.501Z,87.47
2019-03-04T07:41:57.298Z,88.09
2019-03-04T07:42:57.203Z,89.61
2019-03-04T07:43:57.119Z,89.70
2019-03-04T07:44:57.007Z,90.08
2019-03-04T07:45:56.909Z,89.42
2019-03-04T07:46:56.810Z,90.18
2019-03-04T07:47:56.824Z,90.08
2019-03-04T07:48:56.638Z,90.18
2019-03-04T07:49:56.521Z,89.80
2019-03-04T07:50:56.427Z,90.37
2019-03-04T07:51:56.326Z,90.37
2019-03-04T07:52:56.231Z,91.22
2019-03-04T07:53:56.153Z,91.22
2019-03-04T07:54:56.158Z,92.22
2019-03-04T07:55:55.943Z,94.93
2019-03-04T07:56:55.845Z,94.46
2019-03-04T07:57:55.757Z,93.41
2019-03-04T07:58:55.671Z,94.70
2019-03-04T07:59:55.558Z,95.56
2019-03-04T08:00:55.458Z,94.70
2019-03-04T08:01:55.472Z,94.60
2019-03-04T08:02:55.266Z,94.98
2019-03-04T08:03:55.187Z,95.56
2019-03-04T08:04:55.092Z,95.27
2019-03-04T08:05:54.980Z,94.98
2019-03-04T08:06:54.881Z,95.84
2019-03-04T08:07:54.786Z,95.36
2019-03-04T08:08:54.715Z,95.60
2019-03-04T08:09:54.597Z,95.98
2019-03-04T08:10:54.504Z,96.08
2019-03-04T08:11:54.407Z,96.17
2019-03-04T08:12:54.314Z,96.55
2019-03-04T08:13:54.236Z,96.98
2019-03-04T08:14:54.136Z,95.84
2019-03-04T08:15:54.133Z,96.51
2019-03-04T08:16:53.932Z,96.08
2019-03-04T08:17:53.838Z,96.36
2019-03-04T08:18:53.763Z,96.75
2019-03-04T08:19:53.648Z,96.65
2019-03-04T08:20:53.554Z,97.41
2019-03-04T08:21:53.462Z,97.41
2019-03-04T08:22:53.364Z,96.22
2019-03-04T08:23:53.286Z,96.12
2019-03-04T08:24:53.175Z,95.94
2019-03-04T08:25:53.083Z,96.46
2019-03-04T08:26:52.988Z,96.03
2019-03-04T08:27:52.896Z,96.70
2019-03-04T08:28:52.813Z,95.94
2019-03-04T08:29:52.703Z,96.32
2019-03-04T08:30:52.611Z,96.36
2019-03-04T08:31:52.518Z,95.70
2019-03-04T08:32:52.422Z,96.08
2019-03-04T08:33:52.345Z,96.41
2019-03-04T08:34:52.236Z,95.94
2019-03-04T08:35:52.144Z,97.08
2019-03-04T08:36:52.045Z,95.75
2019-03-04T08:37:51.949Z,97.08
2019-03-04T08:38:51.871Z,95.94
2019-03-04T08:39:51.763Z,96.13
2019-03-04T08:40:51.667Z,95.27
2019-03-04T08:41:51.603Z,96.70
2019-03-04T08:42:51.483Z,95.98
2019-03-04T08:43:51.407Z,95.03
2019-03-04T08:44:51.299Z,94.84
2019-03-04T08:45:51.201Z,94.74
2019-03-04T08:46:51.110Z,95.17
2019-03-04T08:47:51.015Z,94.60
2019-03-04T08:48:50.938Z,94.89
2019-03-04T08:49:50.828Z,94.12
2019-03-04T08:50:50.736Z,94.22
2019-03-04T08:51:50.646Z,95.12
2019-03-04T08:52:50.551Z,93.41
2019-03-04T08:53:50.483Z,93.84
2019-03-04T08:54:50.362Z,92.88
2019-03-04T08:55:50.277Z,91.69
2019-03-04T08:56:50.179Z,92.41
2019-03-04T08:57:50.085Z,92.41
2019-03-04T08:58:50.011Z,91.64
2019-03-04T08:59:49.912Z,90.78
2019-03-04T09:00:49.810Z,90.02
2019-03-04T09:01:49.715Z,90.69
2019-03-04T09:02:49.624Z,91.45
2019-03-04T09:03:49.548Z,90.21
2019-03-04T09:04:49.438Z,89.49
2019-03-04T09:05:49.345Z,89.54
2019-03-04T09:06:49.254Z,90.26
2019-03-04T09:07:49.162Z,90.88
2019-03-04T09:08:49.088Z,91.55
2019-03-04T09:09:48.979Z,92.41
2019-03-04T09:10:48.887Z,92.07
2019-03-04T09:11:48.809Z,91.98
2019-03-04T09:12:48.699Z,92.03
2019-03-04T09:13:48.623Z,92.69
2019-03-04T09:14:48.513Z,91.98
2019-03-04T09:15:48.422Z,92.22
2019-03-04T09:16:48.329Z,92.46
2019-03-04T09:17:48.236Z,91.55
2019-03-04T09:18:48.158Z,90.02
2019-03-04T09:19:48.051Z,88.48
2019-03-04T09:20:47.964Z,87.48
2019-03-04T09:21:47.865Z,85.94
2019-03-04T09:22:47.775Z,85.03
2019-03-04T09:23:49.926Z,83.84
2019-03-04T09:24:47.605Z,84.66
2019-03-04T09:25:47.497Z,87.15
2019-03-04T09:26:47.402Z,86.23
2019-03-04T09:27:47.311Z,85.41
2019-03-04T09:28:47.225Z,83.75
2019-03-04T09:29:47.145Z,83.60
2019-03-04T09:30:47.035Z,82.78
2019-03-04T09:31:46.945Z,81.63
2019-03-04T09:32:46.858Z,80.38
2019-03-04T09:33:46.765Z,79.83
2019-03-04T09:34:46.688Z,82.03
2019-03-04T09:35:46.582Z,82.18
2019-03-04T09:36:46.491Z,82.32
2019-03-04T09:37:46.410Z,84.43
2019-03-04T09:38:46.314Z,84.43
2019-03-04T09:39:46.235Z,84.52
2019-03-04T09:40:46.126Z,84.29
2019-03-04T09:41:46.038Z,85.53
2019-03-04T09:42:45.943Z,85.44
2019-03-04T09:43:45.858Z,85.91
2019-03-04T09:44:45.781Z,86.58
2019-03-04T09:45:45.669Z,87.06
2019-03-04T09:46:45.579Z,87.82
2019-03-04T09:47:45.488Z,88.16
2019-03-04T09:48:45.393Z,88.35
2019-03-04T09:49:45.321Z,88.92
2019-03-04T09:50:45.207Z,89.12
2019-03-04T09:51:45.119Z,89.88
2019-03-04T09:52:45.031Z,89.21
2019-03-04T09:53:44.935Z,89.21
2019-03-04T09:54:44.855Z,89.12
2019-03-04T09:55:44.746Z,88.07
2019-03-04T09:56:44.654Z,87.78
2019-03-04T09:57:44.565Z,87.78
2019-03-04T09:58:44.465Z,87.40
2019-03-04T09:59:44.392Z,88.26
2019-03-04T10:00:44.436Z,87.59
2019-03-04T10:01:44.187Z,87.07
2019-03-04T10:02:44.093Z,87.78
2019-03-04T10:03:43.998Z,88.83
2019-03-04T10:04:43.928Z,88.50
2019-03-04T10:05:43.813Z,88.40
2019-03-04T10:06:43.720Z,88.31
2019-03-04T10:07:43.755Z,87.93
2019-03-04T10:08:43.531Z,88.50
2019-03-04T10:09:43.453Z,88.31
2019-03-04T10:10:43.342Z,88.88
2019-03-04T10:11:43.250Z,88.78
2019-03-04T10:12:43.157Z,88.69
2019-03-04T10:13:43.060Z,89.64
2019-03-04T10:14:43.091Z,89.36
2019-03-04T10:15:42.870Z,89.50
2019-03-04T10:16:42.777Z,90.12
2019-03-04T10:17:42.686Z,90.69
2019-03-04T10:18:42.587Z,89.74
2019-03-04T10:19:42.511Z,89.93
2019-03-04T10:20:42.408Z,90.41
2019-03-04T10:21:42.413Z,89.83
2019-03-04T10:22:42.207Z,90.69
2019-03-04T10:23:42.117Z,90.03
2019-03-04T10:24:42.039Z,90.50
2019-03-04T10:25:41.927Z,90.31
2019-03-04T10:26:41.830Z,90.88
2019-03-04T10:27:41.757Z,90.69
2019-03-04T10:28:41.764Z,90.88
2019-03-04T10:29:41.565Z,90.69
2019-03-04T10:30:41.451Z,90.74
2019-03-04T10:31:41.358Z,91.79
2019-03-04T10:32:41.262Z,92.17
2019-03-04T10:33:41.167Z,92.36
2019-03-04T10:34:41.084Z,92.46
2019-03-04T10:35:41.078Z,92.55
2019-03-04T10:36:40.882Z,93.41
2019-03-04T10:37:40.785Z,92.84
2019-03-04T10:38:42.996Z,93.32
2019-03-04T10:39:40.611Z,93.70
2019-03-04T10:40:40.502Z,93.98
2019-03-04T10:41:40.405Z,93.03
2019-03-04T10:42:40.412Z,93.32
2019-03-04T10:43:40.213Z,93.03
2019-03-04T10:44:40.141Z,93.03
2019-03-04T10:45:40.025Z,93.08
2019-03-04T10:46:39.926Z,92.69
2019-03-04T10:47:39.830Z,92.98
2019-03-04T10:48:39.739Z,92.69
2019-03-04T10:49:39.764Z,92.22
2019-03-04T10:50:39.545Z,92.41
2019-03-04T10:51:39.452Z,92.41
2019-03-04T10:52:39.362Z,92.60
2019-03-04T10:53:39.262Z,93.08
2019-03-04T10:54:39.183Z,92.41
2019-03-04T10:55:42.268Z,91.36
2019-03-04T10:56:40.717Z,91.93
2019-03-04T10:57:38.878Z,91.74
2019-03-04T10:58:38.782Z,91.55
2019-03-04T10:59:38.705Z,91.46
2019-03-04T11:00:38.594Z,91.27
2019-03-04T11:01:38.499Z,91.27
2019-03-04T11:02:38.402Z,91.74
2019-03-04T11:03:38.417Z,92.03
2019-03-04T11:04:38.235Z,91.55
2019-03-04T11:05:38.117Z,91.55
2019-03-04T11:06:38.023Z,90.50
2019-03-04T11:07:37.926Z,91.17
2019-03-04T11:08:37.833Z,90.31
2019-03-04T11:09:37.861Z,90.31
2019-03-04T11:10:37.641Z,90.41
2019-03-04T11:11:37.551Z,90.45
2019-03-04T11:12:37.454Z,91.27
2019-03-04T11:13:37.358Z,91.64
2019-03-04T11:14:37.262Z,90.88
2019-03-04T11:15:37.182Z,90.88
2019-03-04T11:16:37.084Z,89.93
2019-03-04T11:17:37.032Z,90.22
2019-03-04T11:18:36.880Z,90.12
2019-03-04T11:19:36.789Z,89.64
2019-03-04T11:20:36.711Z,89.07
2019-03-04T11:21:36.599Z,87.83
2019-03-04T11:22:36.501Z,87.74
2019-03-04T11:23:36.412Z,87.74
2019-03-04T11:24:36.318Z,87.26
2019-03-04T11:25:36.242Z,87.74
2019-03-04T11:26:36.126Z,88.02
2019-03-04T11:27:36.026Z,87.83
2019-03-04T11:28:35.937Z,88.88
2019-03-04T11:29:35.845Z,88.78
2019-03-04T11:30:35.758Z,89.17
2019-03-04T11:31:35.648Z,89.74
2019-03-04T11:32:35.553Z,89.36
2019-03-04T11:33:35.457Z,89.36
2019-03-04T11:34:35.361Z,88.98
2019-03-04T11:35:35.285Z,89.12
2019-03-04T11:36:35.172Z,88.92
2019-03-04T11:37:35.081Z,89.02
2019-03-04T11:38:34.985Z,87.82
2019-03-04T11:39:34.887Z,86.34
2019-03-04T11:40:34.812Z,85.15
2019-03-04T11:41:34.698Z,86.30
2019-03-04T11:42:34.602Z,86.63
2019-03-04T11:43:34.511Z,87.49
2019-03-04T11:44:34.418Z,88.45
2019-03-04T11:45:34.340Z,89.12
2019-03-04T11:46:34.230Z,89.40
2019-03-04T11:47:34.132Z,89.17
2019-03-04T11:48:34.041Z,89.54
2019-03-04T11:49:33.945Z,90.22
2019-03-04T11:50:33.868Z,89.93
2019-03-04T11:51:33.759Z,90.41
2019-03-04T11:52:33.661Z,90.41
2019-03-04T11:53:33.570Z,91.64
2019-03-04T11:54:33.475Z,90.69
2019-03-04T11:55:33.401Z,91.17
2019-03-04T11:56:33.288Z,91.36
2019-03-04T11:57:33.193Z,90.55
2019-03-04T11:58:33.096Z,90.07
2019-03-04T11:59:33.003Z,89.69
2019-03-04T12:00:32.925Z,89.06
2019-03-04T12:01:32.813Z,90.02
2019-03-04T12:02:38.793Z,89.64
2019-03-04T12:03:32.628Z,89.12
2019-03-04T12:04:32.531Z,89.54
2019-03-04T12:05:32.470Z,89.88
2019-03-04T12:06:32.340Z,89.21
2019-03-04T12:07:32.249Z,90.73
2019-03-04T12:08:32.158Z,89.78
2019-03-04T12:09:32.065Z,90.45
2019-03-04T12:10:31.990Z,90.69
2019-03-04T12:11:38.284Z,91.55
2019-03-04T12:12:31.779Z,91.07
2019-03-04T12:13:31.688Z,91.46
2019-03-04T12:14:31.591Z,91.74
2019-03-04T12:15:31.518Z,92.22
2019-03-04T12:16:31.403Z,91.74
2019-03-04T12:17:31.308Z,91.17
2019-03-04T12:18:31.218Z,91.46
2019-03-04T12:19:31.124Z,92.12
2019-03-04T12:20:31.044Z,91.36
2019-03-04T12:21:30.935Z,92.12
2019-03-04T12:22:30.837Z,91.74
2019-03-04T12:23:30.746Z,91.55
2019-03-04T12:24:30.653Z,90.50
2019-03-04T12:25:30.574Z,91.07
2019-03-04T12:26:30.570Z,90.79
2019-03-04T12:27:30.370Z,91.07
2019-03-04T12:28:30.273Z,91.55
2019-03-04T12:29:30.180Z,90.59
2019-03-04T12:30:30.102Z,91.17
2019-03-04T12:31:29.994Z,90.98
2019-03-04T12:32:29.894Z,90.03
2019-03-04T12:33:29.906Z,89.69
2019-03-04T12:34:29.705Z,89.59
2019-03-04T12:35:29.679Z,90.07
2019-03-04T12:36:29.520Z,89.07
2019-03-04T12:37:29.424Z,87.64
2019-03-04T12:38:29.331Z,88.02
2019-03-04T12:39:29.233Z,87.54
2019-03-04T12:40:29.265Z,88.78
2019-03-04T12:41:29.048Z,89.17
2019-03-04T12:42:28.954Z,88.78
2019-03-04T12:43:28.857Z,88.98
2019-03-04T12:44:28.762Z,89.07
2019-03-04T12:45:34.424Z,88.40
2019-03-04T12:46:28.573Z,87.54
2019-03-04T12:47:28.605Z,86.98
2019-03-04T12:48:28.386Z,87.16
2019-03-04T12:49:28.291Z,86.49
2019-03-04T12:50:28.197Z,87.16
2019-03-04T12:51:28.128Z,87.35